createdAt,value
2022-12-05T00:00:28.655Z,96703.00
2022-12-05T00:02:55.320Z,96701.00
2022-12-05T00:05:21.972Z,96702.00
2022-12-05T00:07:48.730Z,96702.00
2022-12-05T00:10:15.961Z,96698.00
2022-12-05T00:12:42.667Z,96698.00
2022-12-05T00:15:12.425Z,96716.00
2022-12-05T00:17:40.733Z,96723.00
2022-12-05T00:20:08.577Z,96716.00
2022-12-05T00:22:37.244Z,96710.00
2022-12-05T00:25:06.062Z,96715.00
2022-12-05T00:27:32.962Z,96713.00
2022-12-05T00:29:59.970Z,96702.00
2022-12-05T00:32:29.198Z,96707.00
2022-12-05T00:34:56.069Z,96707.00
2022-12-05T00:37:23.090Z,96702.00
2022-12-05T00:39:49.766Z,96704.00
2022-12-05T00:42:16.581Z,96723.00
2022-12-05T00:44:43.233Z,96730.00
2022-12-05T00:47:09.974Z,96741.00
2022-12-05T00:49:36.954Z,96746.00
2022-12-05T00:52:03.704Z,96736.00
2022-12-05T00:54:30.406Z,96740.00
2022-12-05T00:56:57.109Z,96733.00
2022-12-05T00:59:23.781Z,96747.00
2022-12-05T01:01:51.664Z,96746.00
2022-12-05T01:04:23.948Z,96740.00
2022-12-05T01:06:51.516Z,96741.00
2022-12-05T01:09:20.230Z,96733.00
2022-12-05T01:11:47.189Z,96735.00
2022-12-05T01:14:15.490Z,96749.00
2022-12-05T01:16:43.705Z,96733.00
2022-12-05T01:19:17.011Z,96742.00
2022-12-05T01:21:43.952Z,96742.00
2022-12-05T01:24:11.736Z,96746.00
2022-12-05T01:26:38.708Z,96755.00
2022-12-05T01:29:05.485Z,96747.00
2022-12-05T01:31:34.530Z,96754.00
2022-12-05T01:34:04.372Z,96759.00
2022-12-05T01:36:31.505Z,96777.00
2022-12-05T01:38:58.577Z,96775.00
2022-12-05T01:41:37.083Z,96780.00
2022-12-05T01:44:08.087Z,96778.00
2022-12-05T01:46:46.303Z,96783.00
2022-12-05T01:49:16.443Z,96787.00
2022-12-05T01:51:46.034Z,96788.00
2022-12-05T01:54:13.784Z,96799.00
2022-12-05T01:56:42.022Z,96788.00
2022-12-05T01:59:09.606Z,96790.00
2022-12-05T02:01:36.446Z,96781.00
2022-12-05T02:04:03.831Z,96769.00
2022-12-05T02:06:30.843Z,96768.00
2022-12-05T02:08:57.648Z,96760.00
2022-12-05T02:11:26.927Z,96766.00
2022-12-05T02:14:18.369Z,96766.00
2022-12-05T02:16:53.734Z,96766.00
2022-12-05T02:19:51.088Z,96761.00
2022-12-05T02:22:48.723Z,96768.00
2022-12-05T02:25:49.706Z,96771.00
2022-12-05T02:28:41.289Z,96764.00
2022-12-05T02:31:22.727Z,96774.00
2022-12-05T02:34:14.254Z,96775.00
2022-12-05T02:37:03.939Z,96770.00
2022-12-05T02:39:53.218Z,96773.00
2022-12-05T02:42:59.549Z,96764.00
2022-12-05T02:45:29.047Z,96766.00
2022-12-05T02:47:55.986Z,96766.00
2022-12-05T02:50:25.397Z,96759.00
2022-12-05T02:52:53.629Z,96774.00
2022-12-05T02:55:20.784Z,96760.00
2022-12-05T02:57:55.069Z,96755.00
2022-12-05T03:00:21.894Z,96767.00
2022-12-05T03:02:48.943Z,96771.00
2022-12-05T03:05:22.525Z,96762.00
2022-12-05T03:07:59.578Z,96757.00
2022-12-05T03:10:36.588Z,96762.00
2022-12-05T03:13:31.589Z,96767.00
2022-12-05T03:16:04.418Z,96763.00
2022-12-05T03:18:57.457Z,96766.00
2022-12-05T03:21:55.452Z,96762.00
2022-12-05T03:24:40.938Z,96760.00
2022-12-05T03:27:28.428Z,96763.00
2022-12-05T03:30:34.247Z,96777.00
2022-12-05T03:33:17.914Z,96779.00
2022-12-05T03:36:03.659Z,96779.00
2022-12-05T03:38:46.386Z,96778.00
2022-12-05T03:41:41.594Z,96783.00
2022-12-05T03:44:10.804Z,96789.00
2022-12-05T03:47:16.975Z,96788.00
2022-12-05T03:49:56.042Z,96779.00
2022-12-05T03:52:29.030Z,96785.00
2022-12-05T03:54:58.319Z,96785.00
2022-12-05T03:57:45.409Z,96791.00
2022-12-05T04:00:18.873Z,96788.00
2022-12-05T04:02:51.545Z,96796.00
2022-12-05T04:05:21.338Z,96803.00
2022-12-05T04:07:52.031Z,96800.00
2022-12-05T04:10:23.440Z,96805.00
2022-12-05T04:12:52.888Z,96812.00
2022-12-05T04:15:26.116Z,96814.00
2022-12-05T04:18:00.384Z,96811.00
2022-12-05T04:20:56.200Z,96817.00
2022-12-05T04:23:23.012Z,96812.00
2022-12-05T04:26:01.693Z,96810.00
2022-12-05T04:28:33.113Z,96812.00
2022-12-05T04:31:05.652Z,96820.00
2022-12-05T04:33:59.305Z,96813.00
2022-12-05T04:36:31.938Z,96824.00
2022-12-05T04:39:03.598Z,96820.00
2022-12-05T04:41:34.938Z,96824.00
2022-12-05T04:44:05.828Z,96821.00
2022-12-05T04:46:34.108Z,96818.00
2022-12-05T04:49:02.171Z,96816.00
2022-12-05T04:51:34.426Z,96827.00
2022-12-05T04:54:06.856Z,96831.00
2022-12-05T04:56:35.228Z,96822.00
2022-12-05T04:59:02.101Z,96836.00
2022-12-05T05:01:39.192Z,96842.00
2022-12-05T05:04:13.261Z,96839.00
2022-12-05T05:06:41.042Z,96834.00
2022-12-05T05:09:07.846Z,96841.00
2022-12-05T05:11:35.612Z,96843.00
2022-12-05T05:14:03.134Z,96845.00
2022-12-05T05:16:34.405Z,96841.00
2022-12-05T05:19:01.162Z,96850.00
2022-12-05T05:21:30.376Z,96853.00
2022-12-05T05:23:57.361Z,96856.00
2022-12-05T05:26:24.846Z,96862.00
2022-12-05T05:28:51.584Z,96854.00
2022-12-05T05:31:19.486Z,96856.00
2022-12-05T05:33:53.870Z,96877.00
2022-12-05T05:36:22.171Z,96862.00
2022-12-05T05:38:51.060Z,96881.00
2022-12-05T05:41:36.779Z,96879.00
2022-12-05T05:44:04.202Z,96883.00
2022-12-05T05:46:33.576Z,96888.00
2022-12-05T05:49:00.512Z,96885.00
2022-12-05T05:51:29.244Z,96879.00
2022-12-05T05:53:56.989Z,96878.00
2022-12-05T05:56:23.684Z,96876.00
2022-12-05T05:59:01.963Z,96882.00
2022-12-05T06:01:29.508Z,96905.00
2022-12-05T06:03:56.628Z,96901.00
2022-12-05T06:06:25.265Z,96891.00
2022-12-05T06:08:51.943Z,96914.00
2022-12-05T06:11:25.760Z,96912.00
2022-12-05T06:13:57.583Z,96915.00
2022-12-05T06:16:24.664Z,96920.00
2022-12-05T06:18:52.148Z,96930.00
2022-12-05T06:21:18.961Z,96931.00
2022-12-05T06:23:45.866Z,96929.00
2022-12-05T06:26:15.185Z,96931.00
2022-12-05T06:28:42.563Z,96936.00
2022-12-05T06:31:10.580Z,96931.00
2022-12-05T06:33:37.560Z,96934.00
2022-12-05T06:36:07.195Z,96953.00
2022-12-05T06:38:35.985Z,96944.00
2022-12-05T06:41:07.399Z,96950.00
2022-12-05T06:43:34.216Z,96955.00
2022-12-05T06:46:07.503Z,96949.00
2022-12-05T06:48:34.427Z,96957.00
2022-12-05T06:51:01.442Z,96956.00
2022-12-05T06:53:28.562Z,96951.00
2022-12-05T06:55:56.666Z,96958.00
2022-12-05T06:58:23.412Z,96951.00
2022-12-05T07:01:08.765Z,96948.00
2022-12-05T07:03:35.509Z,96958.00
2022-12-05T07:06:03.983Z,96957.00
2022-12-05T07:08:30.680Z,96963.00
2022-12-05T07:10:57.584Z,96959.00
2022-12-05T07:13:24.334Z,96967.00
2022-12-05T07:15:51.460Z,96966.00
2022-12-05T07:18:18.358Z,96963.00
2022-12-05T07:21:10.702Z,96962.00
2022-12-05T07:23:32.251Z,96969.00
2022-12-05T07:25:58.932Z,96965.00
2022-12-05T07:28:25.885Z,96968.00
2022-12-05T07:31:03.604Z,96973.00
2022-12-05T07:33:30.351Z,96966.00
2022-12-05T07:36:05.954Z,96974.00
2022-12-05T07:38:32.981Z,96975.00
2022-12-05T07:40:59.856Z,96987.00
2022-12-05T07:43:26.636Z,96993.00
2022-12-05T07:45:53.379Z,96990.00
2022-12-05T07:48:20.098Z,96996.00
2022-12-05T07:50:46.851Z,96988.00
2022-12-05T07:53:13.510Z,96992.00
2022-12-05T07:55:40.186Z,96991.00
2022-12-05T07:58:06.849Z,97004.00
2022-12-05T08:00:33.543Z,97000.00
2022-12-05T08:03:03.057Z,97011.00
2022-12-05T08:05:29.825Z,97013.00
2022-12-05T08:07:56.517Z,97008.00
2022-12-05T08:10:23.260Z,97015.00
2022-12-05T08:12:49.920Z,97022.00
2022-12-05T08:15:16.686Z,97015.00
2022-12-05T08:17:43.434Z,97015.00
2022-12-05T08:20:10.559Z,97019.00
2022-12-05T08:22:37.211Z,97025.00
2022-12-05T08:25:04.130Z,97023.00
2022-12-05T08:27:30.850Z,97018.00
2022-12-05T08:29:57.893Z,97018.00
2022-12-05T08:32:24.693Z,97024.00
2022-12-05T08:34:51.421Z,97022.00
2022-12-05T08:37:18.093Z,97030.00
2022-12-05T08:39:44.759Z,97025.00
2022-12-05T08:42:11.424Z,97038.00
2022-12-05T08:44:38.112Z,97031.00
2022-12-05T08:47:04.790Z,97035.00
2022-12-05T08:49:31.469Z,97032.00
2022-12-05T08:51:58.121Z,97035.00
2022-12-05T08:54:24.854Z,97046.00
2022-12-05T08:56:52.226Z,97043.00
2022-12-05T08:59:19.830Z,97052.00
2022-12-05T09:01:46.553Z,97051.00
2022-12-05T09:04:13.542Z,97055.00
2022-12-05T09:06:40.339Z,97058.00
2022-12-05T09:09:09.204Z,97060.00
2022-12-05T09:11:40.666Z,97059.00
2022-12-05T09:14:07.695Z,97066.00
2022-12-05T09:16:38.484Z,97061.00
2022-12-05T09:19:13.303Z,97074.00
2022-12-05T09:21:40.162Z,97077.00
2022-12-05T09:24:07.142Z,97092.00
2022-12-05T09:26:33.830Z,97095.00
2022-12-05T09:29:01.850Z,97097.00
2022-12-05T09:31:29.288Z,97103.00
2022-12-05T09:33:56.226Z,97101.00
2022-12-05T09:36:28.555Z,97098.00
2022-12-05T09:39:00.064Z,97104.00
2022-12-05T09:42:07.966Z,97094.00
2022-12-05T09:44:50.110Z,97099.00
2022-12-05T09:47:31.573Z,97096.00
2022-12-05T09:50:18.459Z,97092.00
2022-12-05T09:52:58.554Z,97095.00
2022-12-05T09:55:25.700Z,97102.00
2022-12-05T09:57:56.275Z,97089.00
2022-12-05T10:00:23.613Z,97106.00
2022-12-05T10:03:26.949Z,97094.00
2022-12-05T10:06:09.232Z,97102.00
2022-12-05T10:08:54.012Z,97095.00
2022-12-05T10:11:46.670Z,97106.00
2022-12-05T10:14:38.103Z,97094.00
2022-12-05T10:17:28.376Z,97099.00
2022-12-05T10:19:58.338Z,97099.00
2022-12-05T10:22:28.921Z,97103.00
2022-12-05T10:25:01.438Z,97102.00
2022-12-05T10:27:40.359Z,97091.00
2022-12-05T10:30:14.869Z,97097.00
2022-12-05T10:32:55.025Z,97091.00
2022-12-05T10:35:26.194Z,97094.00
2022-12-05T10:37:59.120Z,97105.00
2022-12-05T10:40:36.055Z,97088.00
2022-12-05T10:43:04.766Z,97093.00
2022-12-05T10:45:31.703Z,97100.00
2022-12-05T10:47:58.410Z,97097.00
2022-12-05T10:50:29.645Z,97092.00
2022-12-05T10:52:57.851Z,97101.00
2022-12-05T10:55:30.492Z,97103.00
2022-12-05T10:58:18.113Z,97085.00
2022-12-05T11:00:47.746Z,97096.00
2022-12-05T11:03:25.620Z,97094.00
2022-12-05T11:05:55.681Z,97097.00
2022-12-05T11:08:55.818Z,97092.00
2022-12-05T11:11:23.239Z,97088.00
2022-12-05T11:13:52.977Z,97093.00
2022-12-05T11:16:39.174Z,97093.00
2022-12-05T11:19:36.427Z,97083.00
2022-12-05T11:22:04.874Z,97086.00
2022-12-05T11:24:33.804Z,97080.00
2022-12-05T11:27:16.442Z,97085.00
2022-12-05T11:29:45.366Z,97077.00
2022-12-05T11:32:21.616Z,97073.00
2022-12-05T11:34:57.561Z,97084.00
2022-12-05T11:37:27.236Z,97070.00
2022-12-05T11:39:53.965Z,97079.00
2022-12-05T11:42:40.286Z,97060.00
2022-12-05T11:45:22.180Z,97072.00
2022-12-05T11:48:12.637Z,97073.00
2022-12-05T11:51:09.704Z,97065.00
2022-12-05T11:54:35.591Z,97057.00
2022-12-05T11:57:22.555Z,97064.00
2022-12-05T11:59:58.652Z,97059.00
2022-12-05T12:03:04.880Z,97061.00
2022-12-05T12:05:46.196Z,97057.00
2022-12-05T12:08:25.179Z,97047.00
2022-12-05T12:11:03.424Z,97053.00
2022-12-05T12:13:48.361Z,97043.00
2022-12-05T12:16:50.760Z,97053.00
2022-12-05T12:19:43.994Z,97065.00
2022-12-05T12:26:35.031Z,97067.00
2022-12-05T12:29:31.055Z,97064.00
2022-12-05T12:32:40.727Z,97068.00
2022-12-05T12:35:35.408Z,97070.00
2022-12-05T12:38:26.394Z,97061.00
2022-12-05T12:40:55.242Z,97075.00
2022-12-05T12:43:54.341Z,97080.00
2022-12-05T12:46:59.430Z,97080.00
2022-12-05T12:49:44.436Z,97081.00
2022-12-05T12:52:18.476Z,97072.00
2022-12-05T12:55:04.244Z,97069.00
2022-12-05T12:58:06.331Z,97076.00
2022-12-05T13:00:32.972Z,97083.00
2022-12-05T13:03:20.268Z,97079.00
2022-12-05T13:05:53.318Z,97076.00
2022-12-05T13:08:25.041Z,97068.00
2022-12-05T13:10:52.581Z,97081.00
2022-12-05T13:13:26.918Z,97077.00
2022-12-05T13:16:00.324Z,97072.00
2022-12-05T13:18:27.625Z,97082.00
2022-12-05T13:20:59.300Z,97087.00
2022-12-05T13:23:28.442Z,97085.00
2022-12-05T13:25:58.714Z,97083.00
2022-12-05T13:28:34.299Z,97080.00
2022-12-05T13:31:02.521Z,97078.00
2022-12-05T13:33:44.762Z,97076.00
2022-12-05T13:36:42.377Z,97077.00
2022-12-05T13:39:33.553Z,97065.00
2022-12-05T13:42:12.455Z,97067.00
2022-12-05T13:44:49.433Z,97072.00
2022-12-05T13:47:46.112Z,97073.00
2022-12-05T13:50:25.216Z,97084.00
2022-12-05T13:52:55.254Z,97075.00
2022-12-05T13:55:33.902Z,97082.00
2022-12-05T13:58:26.703Z,97084.00
2022-12-05T14:01:30.754Z,97078.00
2022-12-05T14:03:59.894Z,97069.00
2022-12-05T14:06:38.564Z,97082.00
2022-12-05T14:09:29.443Z,97075.00
2022-12-05T14:12:11.241Z,97072.00
2022-12-05T14:14:56.607Z,97070.00
2022-12-05T14:17:27.200Z,97079.00
2022-12-05T14:19:58.804Z,97076.00
2022-12-05T14:22:38.887Z,97084.00
2022-12-05T14:25:08.579Z,97074.00
2022-12-05T14:27:51.825Z,97081.00
2022-12-05T14:30:25.749Z,97079.00
2022-12-05T14:32:53.558Z,97086.00
2022-12-05T14:35:32.259Z,97085.00
2022-12-05T14:38:02.152Z,97088.00
2022-12-05T14:40:40.570Z,97084.00
2022-12-05T14:43:20.442Z,97082.00
2022-12-05T14:45:53.156Z,97074.00
2022-12-05T14:48:19.824Z,97079.00
2022-12-05T14:50:48.608Z,97079.00
2022-12-05T14:53:15.252Z,97081.00
2022-12-05T14:55:44.615Z,97074.00
2022-12-05T14:58:18.556Z,97076.00
2022-12-05T15:00:48.275Z,97086.00
2022-12-05T15:03:23.602Z,97077.00
2022-12-05T15:05:50.463Z,97081.00
2022-12-05T15:08:17.261Z,97087.00
2022-12-05T15:10:45.109Z,97089.00
2022-12-05T15:13:17.663Z,97092.00
2022-12-05T15:15:47.905Z,97098.00
2022-12-05T15:18:39.689Z,97103.00
2022-12-05T15:21:22.086Z,97103.00
2022-12-05T15:23:54.747Z,97099.00
2022-12-05T15:26:48.920Z,97101.00
2022-12-05T15:29:32.756Z,97102.00
2022-12-05T15:32:07.201Z,97109.00
2022-12-05T15:34:33.831Z,97106.00
2022-12-05T15:37:23.582Z,97101.00
2022-12-05T15:39:55.374Z,97105.00
2022-12-05T15:42:34.430Z,97107.00
2022-12-05T15:45:31.764Z,97104.00
2022-12-05T15:48:07.394Z,97101.00
2022-12-05T15:50:38.131Z,97106.00
2022-12-05T15:53:15.922Z,97107.00
2022-12-05T15:55:50.309Z,97106.00
2022-12-05T15:58:33.251Z,97111.00
2022-12-05T16:01:13.085Z,97111.00
2022-12-05T16:03:49.180Z,97117.00
2022-12-05T16:06:42.228Z,97125.00
2022-12-05T16:09:15.157Z,97131.00
2022-12-05T16:11:53.923Z,97129.00
2022-12-05T16:14:51.413Z,97124.00
2022-12-05T16:17:14.766Z,97123.00
2022-12-05T16:19:41.610Z,97123.00
2022-12-05T16:22:12.476Z,97127.00
2022-12-05T16:24:41.732Z,97129.00
2022-12-05T16:27:17.752Z,97121.00
2022-12-05T16:29:45.486Z,97125.00
2022-12-05T16:32:23.704Z,97128.00
2022-12-05T16:34:50.486Z,97124.00
2022-12-05T16:37:26.042Z,97131.00
2022-12-05T16:39:53.053Z,97135.00
2022-12-05T16:42:25.204Z,97136.00
2022-12-05T16:45:02.988Z,97130.00
2022-12-05T16:47:41.867Z,97131.00
2022-12-05T16:50:35.192Z,97131.00
2022-12-05T16:53:07.984Z,97129.00
2022-12-05T16:55:37.701Z,97139.00
2022-12-05T16:58:05.408Z,97144.00
2022-12-05T17:00:33.143Z,97136.00
2022-12-05T17:03:25.907Z,97138.00
2022-12-05T17:05:46.489Z,97143.00
2022-12-05T17:08:20.287Z,97133.00
2022-12-05T17:10:56.759Z,97148.00
2022-12-05T17:13:25.774Z,97149.00
2022-12-05T17:16:24.747Z,97146.00
2022-12-05T17:19:29.352Z,97150.00
2022-12-05T17:21:56.051Z,97156.00
2022-12-05T17:24:24.791Z,97154.00
2022-12-05T17:26:51.539Z,97153.00
2022-12-05T17:29:18.190Z,97160.00
2022-12-05T17:31:45.028Z,97155.00
2022-12-05T17:34:16.473Z,97159.00
2022-12-05T17:36:44.376Z,97148.00
2022-12-05T17:39:11.082Z,97149.00
2022-12-05T17:41:38.069Z,97153.00
2022-12-05T17:44:05.370Z,97156.00
2022-12-05T17:46:32.193Z,97163.00
2022-12-05T17:48:58.990Z,97165.00
2022-12-05T17:51:25.877Z,97169.00
2022-12-05T17:53:53.009Z,97168.00
2022-12-05T17:56:19.850Z,97174.00
2022-12-05T17:58:46.772Z,97168.00
2022-12-05T18:01:19.384Z,97174.00
2022-12-05T18:03:47.544Z,97181.00
2022-12-05T18:06:14.721Z,97174.00
2022-12-05T18:08:43.830Z,97174.00
2022-12-05T18:11:14.138Z,97177.00
2022-12-05T18:13:40.845Z,97176.00
2022-12-05T18:16:07.862Z,97177.00
2022-12-05T18:18:34.735Z,97175.00
2022-12-05T18:21:09.793Z,97183.00
2022-12-05T18:23:37.073Z,97171.00
2022-12-05T18:26:04.849Z,97180.00
2022-12-05T18:28:31.522Z,97183.00
2022-12-05T18:31:12.133Z,97175.00
2022-12-05T18:33:39.389Z,97180.00
2022-12-05T18:36:15.787Z,97175.00
2022-12-05T18:38:43.368Z,97190.00
2022-12-05T18:41:10.362Z,97180.00
2022-12-05T18:43:37.131Z,97181.00
2022-12-05T18:46:04.801Z,97190.00
2022-12-05T18:48:42.548Z,97196.00
2022-12-05T18:51:18.843Z,97196.00
2022-12-05T18:53:52.274Z,97198.00
2022-12-05T18:56:23.253Z,97203.00
2022-12-05T18:58:59.383Z,97195.00
2022-12-05T19:01:28.173Z,97200.00
2022-12-05T19:03:57.021Z,97197.00
2022-12-05T19:06:25.750Z,97205.00
2022-12-05T19:09:00.481Z,97196.00
2022-12-05T19:11:28.170Z,97203.00
2022-12-05T19:13:59.909Z,97212.00
2022-12-05T19:16:28.326Z,97196.00
2022-12-05T19:18:57.408Z,97203.00
2022-12-05T19:21:25.936Z,97197.00
2022-12-05T19:23:53.001Z,97205.00
2022-12-05T19:26:19.696Z,97207.00
2022-12-05T19:28:46.373Z,97208.00
2022-12-05T19:31:15.674Z,97212.00
2022-12-05T19:33:45.073Z,97213.00
2022-12-05T19:36:20.485Z,97208.00
2022-12-05T19:38:48.815Z,97218.00
2022-12-05T19:41:18.058Z,97216.00
2022-12-05T19:43:45.022Z,97215.00
2022-12-05T19:46:14.512Z,97215.00
2022-12-05T19:48:41.335Z,97218.00
2022-12-05T19:51:08.257Z,97220.00
2022-12-05T19:53:38.993Z,97208.00
2022-12-05T19:56:08.791Z,97212.00
2022-12-05T19:58:36.195Z,97206.00
2022-12-05T20:01:08.185Z,97203.00
2022-12-05T20:03:35.279Z,97208.00
2022-12-05T20:06:02.046Z,97206.00
2022-12-05T20:08:28.712Z,97211.00
2022-12-05T20:10:55.380Z,97213.00
2022-12-05T20:13:45.852Z,97212.00
2022-12-05T20:16:10.955Z,97213.00
2022-12-05T20:18:42.007Z,97212.00
2022-12-05T20:21:11.477Z,97220.00
2022-12-05T20:23:38.291Z,97215.00
2022-12-05T20:26:12.954Z,97218.00
2022-12-05T20:28:39.865Z,97216.00
2022-12-05T20:31:08.169Z,97210.00
2022-12-05T20:33:35.493Z,97211.00
2022-12-05T20:36:07.651Z,97214.00
2022-12-05T20:38:34.322Z,97219.00
2022-12-05T20:41:12.232Z,97212.00
2022-12-05T20:43:38.987Z,97222.00
2022-12-05T20:46:11.932Z,97216.00
2022-12-05T20:48:38.678Z,97212.00
2022-12-05T20:51:11.237Z,97217.00
2022-12-05T20:53:39.716Z,97211.00
2022-12-05T20:56:14.678Z,97215.00
2022-12-05T20:58:43.489Z,97209.00
2022-12-05T21:01:11.352Z,97208.00
2022-12-05T21:03:42.521Z,97209.00
2022-12-05T21:06:11.360Z,97197.00
2022-12-05T21:08:38.438Z,97208.00
2022-12-05T21:11:06.104Z,97206.00
2022-12-05T21:13:32.872Z,97207.00
2022-12-05T21:16:11.132Z,97202.00
2022-12-05T21:18:38.702Z,97207.00
2022-12-05T21:21:08.622Z,97201.00
2022-12-05T21:23:35.341Z,97193.00
2022-12-05T21:26:04.820Z,97194.00
2022-12-05T21:28:32.151Z,97184.00
2022-12-05T21:31:14.075Z,97194.00
2022-12-05T21:33:42.468Z,97202.00
2022-12-05T21:36:09.325Z,97198.00
2022-12-05T21:38:36.007Z,97195.00
2022-12-05T21:41:04.243Z,97201.00
2022-12-05T21:43:31.372Z,97201.00
2022-12-05T21:45:58.102Z,97191.00
2022-12-05T21:48:25.556Z,97188.00
2022-12-05T21:50:52.318Z,97188.00
2022-12-05T21:53:19.674Z,97190.00
2022-12-05T21:55:46.499Z,97199.00
2022-12-05T21:58:13.574Z,97185.00
2022-12-05T22:00:40.457Z,97188.00
2022-12-05T22:03:07.381Z,97188.00
2022-12-05T22:05:34.191Z,97189.00
2022-12-05T22:08:06.085Z,97187.00
2022-12-05T22:10:36.306Z,97183.00
2022-12-05T22:13:03.317Z,97191.00
2022-12-05T22:15:30.274Z,97182.00
2022-12-05T22:17:57.008Z,97195.00
2022-12-05T22:20:23.855Z,97182.00
2022-12-05T22:22:50.540Z,97184.00
2022-12-05T22:25:17.200Z,97176.00
2022-12-05T22:27:43.925Z,97175.00
2022-12-05T22:30:10.833Z,97175.00
2022-12-05T22:32:37.647Z,97178.00
2022-12-05T22:35:04.699Z,97177.00
2022-12-05T22:37:31.715Z,97182.00
2022-12-05T22:39:58.893Z,97174.00
2022-12-05T22:42:27.265Z,97176.00
2022-12-05T22:44:53.917Z,97173.00
2022-12-05T22:47:20.623Z,97166.00
2022-12-05T22:49:47.278Z,97160.00
2022-12-05T22:52:14.695Z,97163.00
2022-12-05T22:54:41.364Z,97167.00
2022-12-05T22:57:08.198Z,97171.00
2022-12-05T22:59:35.014Z,97171.00
2022-12-05T23:02:01.687Z,97173.00
2022-12-05T23:04:28.472Z,97173.00
2022-12-05T23:06:55.193Z,97174.00
2022-12-05T23:09:22.071Z,97162.00
2022-12-05T23:11:50.441Z,97163.00
2022-12-05T23:14:17.241Z,97162.00
2022-12-05T23:16:44.227Z,97154.00
2022-12-05T23:19:10.992Z,97161.00
2022-12-05T23:21:39.197Z,97153.00
2022-12-05T23:24:11.216Z,97150.00
2022-12-05T23:26:41.126Z,97150.00
2022-12-05T23:29:08.258Z,97150.00
2022-12-05T23:31:35.046Z,97152.00
2022-12-05T23:34:03.782Z,97148.00
2022-12-05T23:36:32.511Z,97159.00
2022-12-05T23:38:59.253Z,97156.00
2022-12-05T23:41:26.331Z,97167.00
2022-12-05T23:43:53.718Z,97163.00
2022-12-05T23:46:24.098Z,97160.00
2022-12-05T23:48:51.367Z,97156.00
2022-12-05T23:51:21.153Z,97159.00
2022-12-05T23:53:52.912Z,97159.00
2022-12-05T23:56:22.329Z,97160.00
2022-12-05T23:58:49.022Z,97161.00
